Time;durP1;ratioP1;P1;durP2;ratioP2;P2;SDS_P1;SDS_P2;PMS_P1;PMS_P2;Temp;Humidity;BMP_temperature;BMP_pressure;BME280_temperature;BME280_humidity;BME280_pressure;Samples;Min_cycle;Max_cycle;Signal;HPM_P1;HPM_P2
2022/12/14 00:00:34;;;;;;;7.33;4.80;;;1.20;83.00;;;;;;935884;150;27364;-78
2022/12/14 00:03:01;;;;;;;6.07;4.47;;;1.20;83.20;;;;;;936462;149;27390;-77
2022/12/14 00:05:28;;;;;;;5.60;5.00;;;1.20;83.20;;;;;;935388;152;27325;-78
2022/12/14 00:07:54;;;;;;;5.77;4.67;;;1.20;83.10;;;;;;937210;149;27316;-78
2022/12/14 00:10:21;;;;;;;5.40;4.60;;;1.20;83.20;;;;;;936523;150;27457;-78
2022/12/14 00:12:47;;;;;;;5.83;4.60;;;1.20;83.00;;;;;;936899;152;27889;-77
2022/12/14 00:15:14;;;;;;;6.53;5.23;;;1.20;83.00;;;;;;935459;150;27291;-77
2022/12/14 00:17:41;;;;;;;5.40;4.37;;;1.20;82.80;;;;;;936813;152;27230;-77
2022/12/14 00:20:07;;;;;;;5.70;4.60;;;1.20;82.60;;;;;;936973;149;27475;-77
2022/12/14 00:22:34;;;;;;;6.40;4.90;;;1.20;82.70;;;;;;935766;152;27416;-77
2022/12/14 00:25:01;;;;;;;5.87;4.63;;;1.20;82.50;;;;;;938531;149;27328;-77
2022/12/14 00:27:27;;;;;;;9.47;6.33;;;1.20;82.50;;;;;;936005;151;27466;-77
2022/12/14 00:29:53;;;;;;;10.83;7.00;;;1.20;82.60;;;;;;936734;150;28221;-77
2022/12/14 00:32:20;;;;;;;8.37;5.10;;;1.20;82.70;;;;;;936042;149;27990;-78
2022/12/14 00:34:47;;;;;;;5.53;4.60;;;1.20;82.60;;;;;;936611;150;27425;-77
2022/12/14 00:37:13;;;;;;;5.00;4.40;;;1.20;82.60;;;;;;936838;150;27465;-78
2022/12/14 00:39:40;;;;;;;5.77;4.70;;;1.20;82.50;;;;;;937456;149;27360;-77
2022/12/14 00:42:06;;;;;;;5.60;4.60;;;1.20;82.80;;;;;;937028;151;28598;-77
2022/12/14 00:44:33;;;;;;;6.03;4.57;;;1.20;82.50;;;;;;936536;151;27361;-77
2022/12/14 00:47:00;;;;;;;4.57;4.03;;;1.20;82.40;;;;;;936596;150;27333;-78
2022/12/14 00:49:26;;;;;;;5.30;4.43;;;1.20;81.50;;;;;;939882;151;27305;-77
2022/12/14 00:51:53;;;;;;;6.10;4.37;;;1.20;82.30;;;;;;938113;150;27336;-77
2022/12/14 00:54:19;;;;;;;5.70;4.47;;;1.30;82.40;;;;;;936426;152;27355;-77
2022/12/14 00:56:46;;;;;;;4.80;4.30;;;1.30;82.50;;;;;;935764;150;27697;-77
2022/12/14 00:59:12;;;;;;;6.67;4.80;;;1.30;82.90;;;;;;936374;149;27308;-78
2022/12/14 01:01:39;;;;;;;5.23;4.50;;;1.30;82.70;;;;;;936495;149;27801;-78
2022/12/14 01:04:18;;;;;;;4.83;4.33;;;1.30;82.50;;;;;;936302;149;27937;-77
2022/12/14 01:06:47;;;;;;;4.97;3.73;;;1.30;82.50;;;;;;936453;148;27361;-78
2022/12/14 01:09:14;;;;;;;5.47;3.83;;;1.30;82.30;;;;;;936846;149;27449;-76
2022/12/14 01:11:40;;;;;;;5.40;4.13;;;1.40;82.40;;;;;;936058;150;27332;-76
2022/12/14 01:14:07;;;;;;;5.20;4.67;;;1.40;82.30;;;;;;936228;151;27273;-77
2022/12/14 01:16:34;;;;;;;5.13;4.03;;;1.40;82.10;;;;;;937626;151;27340;-77
2022/12/14 01:19:00;;;;;;;6.13;4.43;;;1.40;82.00;;;;;;935482;151;27352;-77
2022/12/14 01:21:27;;;;;;;4.00;3.60;;;1.40;82.00;;;;;;935625;149;27324;-77
2022/12/14 01:23:53;;;;;;;5.93;4.40;;;1.40;81.90;;;;;;935696;151;27338;-76
2022/12/14 01:26:20;;;;;;;5.53;4.13;;;1.50;81.80;;;;;;937333;149;27438;-77
2022/12/14 01:28:47;;;;;;;5.53;3.97;;;1.50;82.00;;;;;;937906;149;27300;-77
2022/12/14 01:31:13;;;;;;;7.87;4.67;;;1.50;81.80;;;;;;936213;149;27876;-77
2022/12/14 01:33:40;;;;;;;5.23;3.93;;;1.50;81.80;;;;;;930780;153;27339;-77
2022/12/14 01:36:06;;;;;;;5.63;4.57;;;1.50;81.80;;;;;;930558;153;27288;-77
2022/12/14 01:38:33;;;;;;;5.17;4.03;;;1.50;81.70;;;;;;931056;151;27365;-76
2022/12/14 01:40:59;;;;;;;5.63;4.57;;;1.50;81.50;;;;;;930210;153;27276;-77
2022/12/14 01:43:26;;;;;;;4.83;4.13;;;1.50;81.50;;;;;;930642;151;27354;-77
2022/12/14 01:45:53;;;;;;;5.20;4.40;;;1.50;81.40;;;;;;930164;151;27435;-77
2022/12/14 01:48:19;;;;;;;4.63;4.03;;;1.50;81.30;;;;;;928021;150;28013;-77
2022/12/14 01:50:46;;;;;;;4.87;4.37;;;1.50;81.20;;;;;;930724;152;27311;-77
2022/12/14 01:53:15;;;;;;;5.03;3.83;;;1.50;81.20;;;;;;930403;152;27272;-77
2022/12/14 01:55:42;;;;;;;4.93;4.20;;;1.50;81.20;;;;;;930635;153;27353;-76
2022/12/14 01:58:20;;;;;;;5.23;4.40;;;1.50;81.20;;;;;;930623;151;27337;-77
2022/12/14 02:00:47;;;;;;;4.50;3.97;;;1.50;81.00;;;;;;935594;149;27355;-77
2022/12/14 02:03:16;;;;;;;5.13;4.30;;;1.50;81.10;;;;;;938722;149;27360;-77
2022/12/14 02:05:43;;;;;;;6.07;4.80;;;1.50;81.00;;;;;;936220;149;27479;-77
2022/12/14 02:08:10;;;;;;;5.10;4.20;;;1.40;80.90;;;;;;938452;149;27525;-77
2022/12/14 02:10:36;;;;;;;5.13;3.90;;;1.50;81.10;;;;;;938269;149;27803;-76
2022/12/14 02:13:21;;;;;;;6.43;5.10;;;1.40;81.00;;;;;;937215;149;27386;-77
2022/12/14 02:15:48;;;;;;;4.80;4.30;;;1.50;80.80;;;;;;933986;149;27413;-77
2022/12/14 02:18:14;;;;;;;7.03;4.97;;;1.40;80.70;;;;;;937264;149;27337;-76
2022/12/14 02:20:44;;;;;;;6.17;4.40;;;1.40;80.70;;;;;;937220;149;27424;-76
2022/12/14 02:23:16;;;;;;;6.87;4.70;;;1.50;80.90;;;;;;937881;149;27358;-76
2022/12/14 02:25:48;;;;;;;5.83;4.47;;;1.40;80.90;;;;;;920941;152;28422;-77
2022/12/14 02:28:40;;;;;;;5.63;4.60;;;1.40;80.90;;;;;;931286;152;27413;-77
2022/12/14 02:31:18;;;;;;;4.83;4.30;;;1.40;80.70;;;;;;934022;152;27424;-76
2022/12/14 02:33:50;;;;;;;5.00;4.30;;;1.40;80.80;;;;;;944541;148;27419;-77
2022/12/14 02:36:16;;;;;;;5.93;4.80;;;1.40;80.80;;;;;;945224;151;27362;-77
2022/12/14 02:38:46;;;;;;;6.00;4.50;;;1.40;80.70;;;;;;939071;149;27350;-77
2022/12/14 02:41:37;;;;;;;5.97;4.50;;;1.40;80.80;;;;;;937464;149;27415;-77
2022/12/14 02:44:15;;;;;;;4.70;4.00;;;1.40;80.60;;;;;;955992;146;27354;-77
2022/12/14 02:47:03;;;;;;;4.83;4.33;;;1.40;80.60;;;;;;936857;149;27413;-77
2022/12/14 02:49:32;;;;;;;5.33;4.77;;;1.40;80.40;;;;;;954557;146;27866;-76
2022/12/14 02:52:11;;;;;;;4.67;3.90;;;1.40;80.30;;;;;;947263;148;27326;-77
2022/12/14 02:54:37;;;;;;;5.27;4.20;;;1.40;80.30;;;;;;947962;149;27279;-76
2022/12/14 02:57:13;;;;;;;5.57;4.60;;;1.40;80.50;;;;;;948593;150;27449;-77
2022/12/14 02:59:40;;;;;;;6.27;4.67;;;1.40;80.10;;;;;;937981;149;27400;-76
2022/12/14 03:02:06;;;;;;;6.40;4.60;;;1.40;80.20;;;;;;935734;149;27838;-76
2022/12/14 03:04:33;;;;;;;6.23;4.30;;;1.40;80.30;;;;;;944869;149;27316;-79
2022/12/14 03:06:59;;;;;;;5.63;4.90;;;1.40;80.20;;;;;;958270;146;27290;-78
2022/12/14 03:09:26;;;;;;;6.80;5.20;;;1.40;80.10;;;;;;957326;146;27907;-79
2022/12/14 03:11:58;;;;;;;6.10;4.83;;;1.40;80.10;;;;;;955939;146;27352;-79
2022/12/14 03:14:33;;;;;;;4.67;4.13;;;1.40;80.10;;;;;;956447;146;27460;-79
2022/12/14 03:17:03;;;;;;;6.80;4.77;;;1.40;80.10;;;;;;947640;148;27295;-77
2022/12/14 03:19:36;;;;;;;4.50;4.07;;;1.40;80.10;;;;;;941845;151;27382;-77
2022/12/14 03:22:14;;;;;;;5.30;4.67;;;1.40;80.10;;;;;;943033;148;27978;-78
2022/12/14 03:24:41;;;;;;;7.03;4.70;;;1.40;80.10;;;;;;944194;151;27362;-77
2022/12/14 03:27:14;;;;;;;5.27;4.20;;;1.50;80.40;;;;;;942608;151;27373;-78
2022/12/14 03:29:40;;;;;;;5.63;4.27;;;1.50;80.30;;;;;;943162;148;27280;-77
2022/12/14 03:32:06;;;;;;;6.10;4.63;;;1.50;80.30;;;;;;941965;148;27248;-78
2022/12/14 03:34:36;;;;;;;5.73;4.47;;;1.50;80.30;;;;;;935749;150;27364;-78
2022/12/14 03:37:14;;;;;;;5.17;4.60;;;1.50;80.10;;;;;;934327;150;28455;-77
2022/12/14 03:39:40;;;;;;;6.33;5.00;;;1.50;80.10;;;;;;936657;151;27324;-77
2022/12/14 03:42:19;;;;;;;6.20;4.67;;;1.60;80.10;;;;;;937747;150;27331;-78
2022/12/14 03:44:46;;;;;;;5.63;4.40;;;1.60;80.10;;;;;;936786;151;27323;-77
2022/12/14 03:47:22;;;;;;;5.67;4.90;;;1.60;80.10;;;;;;936131;151;27338;-77
2022/12/14 03:49:48;;;;;;;4.93;4.43;;;1.60;80.10;;;;;;936708;151;27337;-77
2022/12/14 03:52:14;;;;;;;5.03;4.23;;;1.60;80.10;;;;;;936265;150;28361;-78
2022/12/14 03:54:44;;;;;;;5.10;4.53;;;1.60;80.00;;;;;;936025;150;27352;-78
2022/12/14 03:57:32;;;;;;;4.90;4.40;;;1.60;79.90;;;;;;937520;152;27363;-77
2022/12/14 04:00:01;;;;;;;5.13;4.63;;;1.60;79.90;;;;;;936522;149;27337;-77
2022/12/14 04:02:34;;;;;;;4.83;4.33;;;1.60;79.80;;;;;;936441;149;27347;-77
2022/12/14 04:05:01;;;;;;;9.00;4.43;;;1.60;79.80;;;;;;936515;149;27405;-77
2022/12/14 04:07:49;;;;;;;8.10;5.03;;;1.60;79.90;;;;;;935646;149;27316;-77
2022/12/14 04:21:35;;;;;;;5.07;4.57;;;1.60;80.30;;;;;;937050;150;27540;-77
2022/12/14 04:26:49;;;;;;;5.10;4.60;;;1.60;80.30;;;;;;934990;152;27500;-77
2022/12/14 04:32:04;;;;;;;5.70;4.47;;;1.60;80.60;;;;;;937439;150;27301;-77
2022/12/14 04:34:30;;;;;;;6.63;4.93;;;1.60;80.50;;;;;;937593;150;27425;-77
2022/12/14 04:37:00;;;;;;;7.07;4.80;;;1.60;80.70;;;;;;937194;152;27352;-77
2022/12/14 04:39:26;;;;;;;5.90;4.43;;;1.60;80.60;;;;;;937910;152;27321;-76
2022/12/14 04:41:53;;;;;;;6.13;5.07;;;1.70;80.70;;;;;;938100;149;27297;-77
2022/12/14 04:44:22;;;;;;;8.20;5.67;;;1.70;80.80;;;;;;937367;151;27308;-77
2022/12/14 04:46:49;;;;;;;6.87;4.87;;;1.70;80.80;;;;;;935819;151;27348;-77
2022/12/14 04:49:52;;;;;;;5.70;4.73;;;1.70;80.70;;;;;;935815;151;27358;-77
2022/12/14 04:52:19;;;;;;;5.10;4.60;;;1.80;80.90;;;;;;937348;150;27339;-77
2022/12/14 04:54:48;;;;;;;6.60;4.90;;;1.80;80.90;;;;;;932734;151;27355;-78
2022/12/14 04:57:35;;;;;;;5.13;4.63;;;1.80;80.90;;;;;;937921;151;27253;-77
2022/12/14 05:00:02;;;;;;;5.30;4.57;;;1.80;80.70;;;;;;938047;150;27319;-77
2022/12/14 05:02:47;;;;;;;5.73;4.73;;;1.90;80.90;;;;;;937518;149;27348;-77
2022/12/14 05:05:14;;;;;;;6.50;5.77;;;1.90;81.00;;;;;;936222;149;27371;-77
2022/12/14 05:07:59;;;;;;;6.00;5.00;;;1.90;81.00;;;;;;937383;152;27305;-77
2022/12/14 05:10:26;;;;;;;7.20;4.67;;;1.90;80.80;;;;;;938315;150;27348;-77
2022/12/14 05:13:07;;;;;;;6.03;5.10;;;1.90;80.70;;;;;;936303;150;27352;-78
2022/12/14 05:15:35;;;;;;;4.93;4.50;;;1.90;80.70;;;;;;936758;151;27252;-77
2022/12/14 05:18:04;;;;;;;6.83;4.80;;;1.90;80.70;;;;;;937684;151;27928;-78
2022/12/14 05:20:31;;;;;;;5.73;4.87;;;1.90;80.70;;;;;;937148;150;27416;-77
2022/12/14 05:22:57;;;;;;;6.10;5.30;;;1.90;80.60;;;;;;937018;151;27409;-77
2022/12/14 05:25:24;;;;;;;6.07;4.80;;;2.00;80.70;;;;;;937884;151;27444;-78
2022/12/14 05:27:51;;;;;;;8.13;5.33;;;2.00;80.50;;;;;;937049;149;27424;-78
2022/12/14 05:30:17;;;;;;;6.13;5.17;;;2.00;80.40;;;;;;937258;149;27309;-77
2022/12/14 05:32:44;;;;;;;6.83;5.13;;;2.00;80.30;;;;;;935752;150;27326;-78
2022/12/14 05:35:13;;;;;;;6.13;5.23;;;2.00;80.30;;;;;;944401;147;27468;-78
2022/12/14 05:37:40;;;;;;;7.70;5.47;;;2.00;80.30;;;;;;948809;150;27438;-78
2022/12/14 05:40:07;;;;;;;8.07;5.90;;;2.10;80.30;;;;;;948097;150;27327;-78
2022/12/14 05:42:33;;;;;;;5.93;5.27;;;2.10;80.50;;;;;;948482;148;27287;-78
2022/12/14 05:45:00;;;;;;;5.97;5.23;;;2.10;80.40;;;;;;948166;147;27302;-78
2022/12/14 05:47:26;;;;;;;8.50;6.20;;;2.10;80.50;;;;;;949238;150;27334;-78
2022/12/14 05:49:53;;;;;;;7.07;5.80;;;2.20;80.50;;;;;;947513;150;27333;-78
2022/12/14 05:52:20;;;;;;;6.83;5.90;;;2.20;80.20;;;;;;948160;148;27338;-78
2022/12/14 05:54:46;;;;;;;7.43;5.87;;;2.20;80.00;;;;;;949102;150;27309;-78
2022/12/14 05:57:13;;;;;;;8.17;6.43;;;2.20;79.80;;;;;;947523;147;27355;-78
2022/12/14 05:59:39;;;;;;;7.33;5.80;;;2.20;79.70;;;;;;948967;150;27325;-78
2022/12/14 06:02:06;;;;;;;7.03;6.23;;;2.20;79.70;;;;;;948994;148;27876;-78
2022/12/14 06:04:32;;;;;;;7.47;5.50;;;2.20;79.90;;;;;;948367;150;27330;-78
2022/12/14 06:06:59;;;;;;;7.63;5.87;;;2.20;79.90;;;;;;949031;147;27302;-78
2022/12/14 06:09:26;;;;;;;7.70;6.10;;;2.20;79.60;;;;;;949619;148;27346;-78
2022/12/14 06:11:52;;;;;;;8.03;5.83;;;2.20;79.40;;;;;;947073;148;27388;-78
2022/12/14 06:14:19;;;;;;;7.10;5.40;;;2.20;79.30;;;;;;947241;147;27289;-78
2022/12/14 06:16:45;;;;;;;7.70;5.87;;;2.20;79.20;;;;;;948794;147;27693;-78
2022/12/14 06:19:12;;;;;;;8.17;5.73;;;2.20;79.10;;;;;;948909;150;27371;-78
2022/12/14 06:21:39;;;;;;;6.00;5.40;;;2.20;79.40;;;;;;949145;148;27320;-78
2022/12/14 06:24:05;;;;;;;9.00;6.33;;;2.20;79.10;;;;;;948880;149;27350;-78
2022/12/14 06:26:32;;;;;;;10.37;6.80;;;2.20;79.10;;;;;;948743;150;27279;-78
2022/12/14 06:28:58;;;;;;;8.73;5.93;;;2.20;79.00;;;;;;949034;148;27715;-78
2022/12/14 06:31:25;;;;;;;9.60;6.27;;;2.20;78.90;;;;;;947913;148;27414;-78
2022/12/14 06:33:52;;;;;;;6.47;5.40;;;2.10;79.00;;;;;;949852;149;27349;-78
2022/12/14 06:36:18;;;;;;;8.53;5.90;;;2.20;78.80;;;;;;938502;148;28342;-78
2022/12/14 06:38:45;;;;;;;8.80;5.50;;;2.10;78.70;;;;;;937582;151;27406;-78
2022/12/14 06:41:11;;;;;;;6.73;5.67;;;2.10;78.70;;;;;;937829;149;27261;-78
2022/12/14 06:43:38;;;;;;;6.20;5.37;;;2.10;78.60;;;;;;936205;150;27352;-78
2022/12/14 06:46:07;;;;;;;8.40;5.63;;;2.10;78.70;;;;;;937076;152;27356;-78
2022/12/14 06:48:34;;;;;;;6.13;5.40;;;2.10;78.70;;;;;;935900;151;27308;-78
2022/12/14 06:51:01;;;;;;;7.23;5.63;;;2.10;78.70;;;;;;937486;150;28082;-78
2022/12/14 06:53:27;;;;;;;8.23;5.77;;;2.10;78.80;;;;;;937890;151;27291;-78
2022/12/14 06:55:54;;;;;;;7.97;5.87;;;2.10;78.80;;;;;;938475;152;27425;-78
2022/12/14 06:58:20;;;;;;;8.17;5.77;;;2.10;78.80;;;;;;937334;149;27340;-78
2022/12/14 07:00:47;;;;;;;8.20;6.20;;;2.10;78.80;;;;;;937655;150;27475;-78
2022/12/14 07:03:13;;;;;;;7.03;6.00;;;2.10;79.00;;;;;;938033;149;27252;-78
2022/12/14 07:05:40;;;;;;;7.63;5.90;;;2.10;78.80;;;;;;936192;151;27304;-78
2022/12/14 07:08:07;;;;;;;7.77;6.40;;;2.10;78.50;;;;;;938461;150;27343;-79
2022/12/14 07:10:33;;;;;;;8.53;6.27;;;2.10;78.50;;;;;;938746;150;27405;-79
2022/12/14 07:13:00;;;;;;;6.70;5.63;;;2.10;78.30;;;;;;937721;152;27280;-78
2022/12/14 07:15:26;;;;;;;8.23;6.20;;;2.10;78.60;;;;;;938588;150;27378;-79
2022/12/14 07:17:53;;;;;;;7.20;6.03;;;2.00;78.50;;;;;;937777;150;27301;-78
2022/12/14 07:20:20;;;;;;;7.47;6.30;;;2.00;78.30;;;;;;937392;151;27343;-78
2022/12/14 07:22:46;;;;;;;8.80;6.03;;;2.00;78.60;;;;;;939368;149;27464;-78
2022/12/14 07:25:13;;;;;;;7.57;6.20;;;2.00;78.20;;;;;;936933;152;27284;-78
2022/12/14 07:27:39;;;;;;;9.67;6.67;;;2.00;78.30;;;;;;936648;150;27281;-78
2022/12/14 07:30:06;;;;;;;11.63;8.93;;;2.00;78.30;;;;;;935692;150;27784;-78
2022/12/14 07:32:33;;;;;;;10.70;7.67;;;2.00;78.20;;;;;;936262;151;27288;-78
2022/12/14 07:34:59;;;;;;;9.00;7.07;;;2.00;78.00;;;;;;937575;151;27272;-78
2022/12/14 07:37:26;;;;;;;8.93;5.90;;;2.00;78.30;;;;;;937794;150;27467;-78
2022/12/14 07:39:53;;;;;;;8.03;6.40;;;2.00;78.50;;;;;;937234;152;27326;-78
2022/12/14 07:42:19;;;;;;;9.30;6.33;;;2.00;78.40;;;;;;938896;150;27309;-79
2022/12/14 07:44:46;;;;;;;7.40;6.53;;;2.00;78.60;;;;;;937722;149;27300;-79
2022/12/14 07:47:12;;;;;;;8.30;6.43;;;2.00;78.60;;;;;;938058;151;27329;-78
2022/12/14 07:49:39;;;;;;;10.13;6.10;;;2.00;78.50;;;;;;938436;151;27449;-78
2022/12/14 07:52:05;;;;;;;7.70;6.13;;;2.00;78.30;;;;;;937222;150;27392;-78
2022/12/14 07:54:32;;;;;;;6.17;5.10;;;2.00;78.30;;;;;;936552;151;27284;-78
2022/12/14 07:56:59;;;;;;;6.83;6.10;;;2.00;78.50;;;;;;936895;151;27316;-78
2022/12/14 07:59:25;;;;;;;10.47;7.00;;;2.00;78.40;;;;;;936453;149;27320;-79
2022/12/14 08:01:52;;;;;;;10.37;7.23;;;2.00;78.50;;;;;;938848;152;27346;-79
2022/12/14 08:04:19;;;;;;;10.30;7.70;;;2.00;78.30;;;;;;938522;151;27339;-79
2022/12/14 08:06:48;;;;;;;9.93;7.40;;;2.10;78.50;;;;;;938226;150;27351;-79
2022/12/14 08:09:12;;;;;;;8.63;6.63;;;2.10;78.30;;;;;;937179;150;27305;-79
2022/12/14 08:11:38;;;;;;;7.83;6.70;;;2.10;78.30;;;;;;937743;151;27340;-79
2022/12/14 08:14:05;;;;;;;9.93;6.90;;;2.10;78.30;;;;;;937839;151;27390;-78
2022/12/14 08:16:31;;;;;;;6.67;5.73;;;2.20;78.40;;;;;;936739;151;27852;-79
2022/12/14 08:18:58;;;;;;;7.10;6.20;;;2.20;78.40;;;;;;936527;150;27329;-79
2022/12/14 08:21:25;;;;;;;8.53;6.63;;;2.30;78.30;;;;;;937578;150;27396;-78
2022/12/14 08:23:51;;;;;;;9.30;5.80;;;2.30;78.20;;;;;;939446;150;27321;-78
2022/12/14 08:26:18;;;;;;;7.10;5.90;;;2.30;78.40;;;;;;938504;152;27250;-79
2022/12/14 08:28:44;;;;;;;9.03;6.37;;;2.30;78.20;;;;;;936741;150;27350;-79
2022/12/14 08:31:11;;;;;;;8.47;6.07;;;2.30;78.20;;;;;;938428;149;27301;-78
2022/12/14 08:33:37;;;;;;;9.20;6.33;;;2.30;78.40;;;;;;937425;150;27344;-79
2022/12/14 08:36:04;;;;;;;10.57;7.57;;;2.40;78.40;;;;;;939348;150;27407;-79
2022/12/14 08:38:31;;;;;;;7.97;6.20;;;2.40;78.80;;;;;;942906;150;27405;-79
2022/12/14 08:40:57;;;;;;;9.00;6.13;;;2.30;78.60;;;;;;944855;148;27343;-79
2022/12/14 08:43:24;;;;;;;7.47;6.47;;;2.30;78.50;;;;;;944309;151;27331;-79
2022/12/14 08:45:50;;;;;;;6.97;5.53;;;2.30;78.40;;;;;;946854;151;27373;-78
2022/12/14 08:48:17;;;;;;;7.70;6.23;;;2.20;78.50;;;;;;944257;151;27272;-78
2022/12/14 08:50:43;;;;;;;9.70;6.60;;;2.20;78.50;;;;;;943943;151;27325;-79
2022/12/14 08:53:10;;;;;;;8.90;6.67;;;2.10;78.60;;;;;;944745;151;27299;-79
2022/12/14 08:55:37;;;;;;;10.40;6.33;;;2.10;78.90;;;;;;944391;150;27338;-79
2022/12/14 08:58:03;;;;;;;8.13;6.40;;;2.10;79.10;;;;;;945813;151;28721;-78
2022/12/14 09:00:30;;;;;;;7.67;6.03;;;2.10;79.20;;;;;;944541;148;27346;-79
2022/12/14 09:02:56;;;;;;;8.57;6.40;;;2.00;79.40;;;;;;945577;148;27280;-79
2022/12/14 09:05:24;;;;;;;8.37;6.60;;;2.00;79.70;;;;;;945690;148;27339;-79
2022/12/14 09:07:50;;;;;;;9.20;6.13;;;2.00;79.90;;;;;;945283;148;27376;-79
2022/12/14 09:10:16;;;;;;;8.87;6.30;;;2.00;79.90;;;;;;943833;148;27456;-79
2022/12/14 09:12:43;;;;;;;8.43;5.90;;;2.00;79.80;;;;;;943743;148;27283;-79
2022/12/14 09:15:09;;;;;;;7.07;5.77;;;2.00;79.90;;;;;;944869;150;27403;-79
2022/12/14 09:17:36;;;;;;;8.47;6.57;;;2.00;80.00;;;;;;944278;151;27416;-79
2022/12/14 09:20:03;;;;;;;9.07;5.93;;;2.00;80.10;;;;;;945084;150;27295;-79
2022/12/14 09:22:29;;;;;;;7.43;6.00;;;2.10;80.20;;;;;;944662;151;27432;-79
2022/12/14 09:24:56;;;;;;;6.53;5.77;;;2.10;80.20;;;;;;945031;151;27399;-79
2022/12/14 09:27:22;;;;;;;7.27;5.83;;;2.00;80.20;;;;;;943372;148;27412;-79
2022/12/14 09:29:49;;;;;;;6.90;5.60;;;2.00;80.30;;;;;;946112;148;27294;-79
2022/12/14 09:32:15;;;;;;;7.00;5.97;;;2.00;80.30;;;;;;944797;148;27343;-78
2022/12/14 09:34:42;;;;;;;7.93;6.00;;;2.00;80.30;;;;;;945933;151;27338;-79
2022/12/14 09:37:09;;;;;;;7.80;6.50;;;2.00;80.50;;;;;;943018;150;27412;-79
2022/12/14 09:39:35;;;;;;;7.17;5.87;;;2.10;80.70;;;;;;935648;151;27324;-79
2022/12/14 09:42:39;;;;;;;7.13;5.80;;;2.10;80.80;;;;;;935925;150;27325;-79
2022/12/14 09:45:16;;;;;;;8.37;5.77;;;2.10;81.10;;;;;;939011;150;27338;-79
2022/12/14 09:47:44;;;;;;;8.23;6.10;;;2.10;81.10;;;;;;936258;151;27397;-79
2022/12/14 09:50:17;;;;;;;9.13;6.77;;;2.20;81.20;;;;;;938801;150;27309;-79
2022/12/14 09:52:46;;;;;;;11.23;8.20;;;2.20;81.30;;;;;;937372;150;27417;-79
2022/12/14 09:55:21;;;;;;;9.17;7.00;;;2.20;81.10;;;;;;936808;150;27772;-79
2022/12/14 09:57:48;;;;;;;13.73;7.83;;;2.30;81.10;;;;;;936626;151;27265;-79
2022/12/14 10:00:18;;;;;;;7.40;6.23;;;2.30;81.10;;;;;;936410;149;27249;-80
2022/12/14 10:03:02;;;;;;;8.13;6.40;;;2.30;81.10;;;;;;937308;151;27344;-79
2022/12/14 10:05:31;;;;;;;9.03;6.20;;;2.30;81.10;;;;;;937061;151;27340;-79
2022/12/14 10:08:06;;;;;;;8.27;6.17;;;2.30;81.20;;;;;;927201;150;27304;-79
2022/12/14 10:10:45;;;;;;;7.70;6.43;;;2.40;81.40;;;;;;935705;151;27364;-80
2022/12/14 10:13:29;;;;;;;8.30;6.07;;;2.40;81.60;;;;;;927787;152;27412;-79
2022/12/14 10:16:17;;;;;;;10.73;7.37;;;2.50;81.60;;;;;;940522;151;27294;-80
2022/12/14 10:19:12;;;;;;;11.17;7.73;;;2.50;81.60;;;;;;939331;150;27329;-79
2022/12/14 10:21:45;;;;;;;9.17;6.47;;;2.50;81.50;;;;;;936572;150;27409;-78
2022/12/14 10:24:11;;;;;;;7.23;5.93;;;2.50;81.70;;;;;;936435;151;27354;-80
2022/12/14 10:26:37;;;;;;;8.60;6.80;;;2.50;81.70;;;;;;937098;151;27327;-80
2022/12/14 10:29:04;;;;;;;8.23;6.30;;;2.60;81.70;;;;;;938051;151;27702;-80
2022/12/14 10:31:36;;;;;;;7.17;6.43;;;2.60;81.70;;;;;;936645;150;27949;-80
2022/12/14 10:34:03;;;;;;;7.10;6.10;;;2.60;81.90;;;;;;922270;151;27317;-80
2022/12/14 10:36:29;;;;;;;7.97;6.27;;;2.60;81.90;;;;;;936926;150;27348;-80
2022/12/14 10:39:02;;;;;;;13.00;8.37;;;2.60;81.90;;;;;;948571;147;27420;-80
2022/12/14 10:41:40;;;;;;;9.10;6.43;;;2.70;82.00;;;;;;947948;148;27350;-78
2022/12/14 10:44:37;;;;;;;7.37;6.60;;;2.70;82.00;;;;;;949001;149;27361;-79
2022/12/14 10:47:14;;;;;;;9.00;6.03;;;2.70;82.00;;;;;;948437;150;27442;-80
2022/12/14 10:49:39;;;;;;;10.33;6.20;;;2.70;81.90;;;;;;948876;147;28189;-80
2022/12/14 10:52:15;;;;;;;8.43;6.00;;;2.70;81.80;;;;;;949355;148;27297;-79
2022/12/14 10:54:39;;;;;;;9.37;7.00;;;2.70;81.90;;;;;;946236;148;27390;-80
2022/12/14 10:57:05;;;;;;;7.10;6.07;;;2.70;81.90;;;;;;947625;149;27338;-80
2022/12/14 10:59:34;;;;;;;11.07;6.47;;;2.80;82.10;;;;;;948966;150;27357;-80
2022/12/14 11:02:04;;;;;;;8.80;6.60;;;2.80;82.20;;;;;;951609;150;27404;-80
2022/12/14 11:04:31;;;;;;;8.27;6.30;;;2.80;82.20;;;;;;949594;149;27290;-79
2022/12/14 11:06:57;;;;;;;8.50;6.53;;;2.80;82.10;;;;;;950383;148;27334;-80
2022/12/14 11:09:24;;;;;;;8.27;6.63;;;2.80;82.00;;;;;;947857;148;27454;-79
2022/12/14 11:11:57;;;;;;;8.60;6.57;;;2.80;82.00;;;;;;948032;150;27339;-79
2022/12/14 11:14:23;;;;;;;7.43;5.63;;;2.90;82.00;;;;;;948148;149;27318;-79
2022/12/14 11:16:50;;;;;;;7.23;6.03;;;2.80;81.90;;;;;;948945;150;27291;-79
2022/12/14 11:19:16;;;;;;;8.67;6.90;;;2.80;81.70;;;;;;947988;148;27350;-79
2022/12/14 11:21:43;;;;;;;7.53;6.10;;;2.80;81.60;;;;;;949083;148;27322;-79
2022/12/14 11:24:25;;;;;;;10.37;6.43;;;2.80;81.60;;;;;;950058;148;27782;-79
2022/12/14 11:26:54;;;;;;;8.83;6.80;;;2.90;81.70;;;;;;947715;149;27450;-79
2022/12/14 11:29:27;;;;;;;8.97;6.87;;;2.80;81.70;;;;;;948157;150;27295;-79
2022/12/14 11:31:53;;;;;;;7.60;5.97;;;2.90;81.80;;;;;;947518;147;27417;-79
2022/12/14 11:34:38;;;;;;;9.03;6.43;;;2.90;81.90;;;;;;947274;148;27743;-80
2022/12/14 11:37:26;;;;;;;9.23;6.63;;;2.90;82.00;;;;;;948530;150;27404;-79
2022/12/14 11:39:58;;;;;;;8.63;6.67;;;2.90;82.10;;;;;;938841;148;27443;-78
2022/12/14 11:42:25;;;;;;;10.00;7.80;;;2.90;82.30;;;;;;937456;150;27251;-78
2022/12/14 11:44:51;;;;;;;8.90;7.00;;;3.00;82.30;;;;;;936937;151;27764;-78
2022/12/14 11:47:18;;;;;;;10.77;8.20;;;3.00;82.00;;;;;;939147;152;27385;-78
2022/12/14 11:49:44;;;;;;;8.33;7.07;;;3.10;81.80;;;;;;937285;151;27336;-78
2022/12/14 11:52:11;;;;;;;11.17;7.80;;;3.10;81.80;;;;;;935949;150;27244;-79
2022/12/14 11:54:37;;;;;;;9.00;7.57;;;3.10;81.70;;;;;;938132;150;27814;-79
2022/12/14 11:57:07;;;;;;;9.13;6.23;;;3.10;81.80;;;;;;937125;149;27345;-79
2022/12/14 11:59:52;;;;;;;9.33;6.97;;;3.10;82.10;;;;;;935469;149;27329;-79
2022/12/14 12:02:21;;;;;;;8.17;6.70;;;3.10;81.90;;;;;;937158;149;27530;-79
2022/12/14 12:04:50;;;;;;;9.90;7.70;;;3.20;81.90;;;;;;938049;151;27323;-79
2022/12/14 12:07:35;;;;;;;9.57;6.67;;;3.20;82.00;;;;;;938234;152;27310;-79
2022/12/14 12:10:01;;;;;;;8.07;7.23;;;3.20;82.00;;;;;;938264;149;27289;-78
2022/12/14 12:12:28;;;;;;;8.00;6.90;;;3.30;82.10;;;;;;937030;150;27446;-79
2022/12/14 12:14:55;;;;;;;7.97;6.93;;;3.30;82.00;;;;;;938223;151;27329;-79
2022/12/14 12:17:39;;;;;;;9.90;7.40;;;3.30;82.00;;;;;;936596;150;27346;-79
2022/12/14 12:20:15;;;;;;;7.90;6.63;;;3.40;82.00;;;;;;937861;151;27402;-79
2022/12/14 12:22:41;;;;;;;7.87;7.07;;;3.40;82.00;;;;;;934833;151;27351;-79
2022/12/14 12:25:08;;;;;;;9.47;7.43;;;3.50;81.80;;;;;;937353;151;27434;-79
2022/12/14 12:27:35;;;;;;;8.03;7.13;;;3.40;81.70;;;;;;935406;151;27356;-79
2022/12/14 12:30:01;;;;;;;9.53;7.70;;;3.50;82.80;;;;;;937928;150;27327;-79
2022/12/14 12:32:39;;;;;;;8.43;6.60;;;3.50;82.30;;;;;;936293;149;27813;-79
2022/12/14 12:35:18;;;;;;;8.83;7.53;;;3.50;83.20;;;;;;935139;151;27258;-79
2022/12/14 12:37:47;;;;;;;8.77;7.43;;;3.60;82.30;;;;;;937506;151;27618;-79
2022/12/14 12:40:16;;;;;;;9.07;7.57;;;3.70;82.20;;;;;;936736;152;27362;-79
2022/12/14 12:42:43;;;;;;;9.30;7.10;;;3.70;82.10;;;;;;937914;149;27804;-79
2022/12/14 12:45:15;;;;;;;11.03;7.43;;;3.70;82.20;;;;;;937616;151;27269;-79
2022/12/14 12:47:42;;;;;;;8.63;7.37;;;3.80;82.50;;;;;;935743;152;27355;-79
2022/12/14 12:50:08;;;;;;;10.50;7.67;;;3.80;82.60;;;;;;936408;150;27335;-79
2022/12/14 12:52:35;;;;;;;9.10;7.43;;;3.90;82.90;;;;;;933785;151;27281;-79
2022/12/14 12:55:08;;;;;;;9.40;7.73;;;4.00;83.10;;;;;;933294;149;27280;-79
2022/12/14 12:57:34;;;;;;;8.60;7.67;;;4.10;83.20;;;;;;936058;151;27346;-79
2022/12/14 13:00:04;;;;;;;9.10;7.27;;;4.10;83.00;;;;;;935424;149;27331;-80
2022/12/14 13:02:30;;;;;;;10.03;8.00;;;4.20;82.90;;;;;;935945;149;27343;-80
2022/12/14 13:04:57;;;;;;;8.53;7.63;;;4.20;82.90;;;;;;935515;151;27265;-79
2022/12/14 13:07:35;;;;;;;8.90;7.27;;;4.30;82.80;;;;;;937869;152;27336;-79
2022/12/14 13:10:02;;;;;;;9.37;7.20;;;4.30;82.50;;;;;;937543;149;27410;-79
2022/12/14 13:12:29;;;;;;;8.43;6.80;;;4.30;82.20;;;;;;938596;151;27351;-79
2022/12/14 13:14:55;;;;;;;7.03;6.10;;;4.30;82.00;;;;;;935884;150;27336;-79
2022/12/14 13:17:28;;;;;;;9.90;7.47;;;4.30;81.80;;;;;;937169;152;27445;-79
2022/12/14 13:19:54;;;;;;;8.83;7.13;;;4.30;81.70;;;;;;936890;151;27316;-79
2022/12/14 13:22:29;;;;;;;7.33;6.33;;;4.30;81.50;;;;;;938402;150;27376;-79